createdAt,value
2017-09-28T00:02:08.121Z,49.63
2017-09-28T00:04:34.204Z,46.80
2017-09-28T00:07:01.043Z,45.30
2017-09-28T00:09:27.126Z,47.60
2017-09-28T00:11:53.202Z,47.33
2017-09-28T00:14:19.274Z,42.93
2017-09-28T00:16:45.349Z,42.80
2017-09-28T00:19:11.401Z,43.60
2017-09-28T00:21:37.461Z,43.33
2017-09-28T00:24:03.514Z,44.67
2017-09-28T00:26:29.613Z,47.20
2017-09-28T00:28:56.413Z,42.10
2017-09-28T00:31:22.497Z,44.00
2017-09-28T00:33:48.585Z,44.93
2017-09-28T00:36:14.645Z,43.67
2017-09-28T00:38:40.777Z,42.83
2017-09-28T00:41:07.596Z,41.17
2017-09-28T00:43:33.722Z,39.83
2017-09-28T00:46:00.526Z,41.77
2017-09-28T00:48:27.381Z,41.73
2017-09-28T00:50:54.229Z,43.90
2017-09-28T00:53:20.269Z,41.07
2017-09-28T00:55:46.330Z,44.67
2017-09-28T00:58:12.373Z,38.77
2017-09-28T01:00:38.479Z,39.37
2017-09-28T01:03:04.538Z,42.13
2017-09-28T01:05:31.373Z,37.57
2017-09-28T01:07:57.454Z,40.30
2017-09-28T01:10:25.300Z,45.97
2017-09-28T01:12:53.120Z,39.47
2017-09-28T01:15:20.960Z,43.50
2017-09-28T01:17:48.785Z,45.90
2017-09-28T01:20:16.601Z,42.30
2017-09-28T01:22:44.554Z,41.87
2017-09-28T01:25:12.385Z,41.43
2017-09-28T01:27:40.270Z,42.33
2017-09-28T01:30:08.119Z,44.63
2017-09-28T01:32:35.981Z,40.10
2017-09-28T01:35:03.806Z,41.63
2017-09-28T01:37:31.640Z,39.80
2017-09-28T01:39:59.497Z,41.57
2017-09-28T01:42:27.340Z,43.97
2017-09-28T01:44:55.162Z,43.13
2017-09-28T01:47:23.010Z,45.30
2017-09-28T01:49:50.859Z,42.10
2017-09-28T01:52:18.680Z,40.63
2017-09-28T01:54:46.550Z,43.10
2017-09-28T01:57:14.415Z,45.80
2017-09-28T01:59:42.254Z,44.80
2017-09-28T02:02:10.098Z,44.00
2017-09-28T02:04:37.942Z,44.20
2017-09-28T02:07:05.784Z,44.00
2017-09-28T02:09:33.663Z,42.60
2017-09-28T02:12:01.483Z,45.50
2017-09-28T02:14:29.321Z,42.50
2017-09-28T02:16:57.145Z,46.17
2017-09-28T02:19:25.025Z,45.90
2017-09-28T02:21:52.859Z,44.80
2017-09-28T02:24:20.713Z,46.60
2017-09-28T02:26:48.540Z,44.87
2017-09-28T02:29:16.383Z,46.37
2017-09-28T02:31:44.228Z,44.80
2017-09-28T02:34:12.057Z,44.70
2017-09-28T02:36:39.879Z,43.63
2017-09-28T02:39:07.707Z,44.17
2017-09-28T02:41:35.528Z,46.50
2017-09-28T02:44:03.349Z,46.00
2017-09-28T02:46:31.186Z,45.07
2017-09-28T02:48:59.006Z,44.47
2017-09-28T02:51:26.845Z,42.53
2017-09-28T02:53:54.656Z,42.83
2017-09-28T02:56:22.473Z,42.47
2017-09-28T02:58:50.308Z,39.70
2017-09-28T03:01:18.144Z,42.90
2017-09-28T03:03:45.997Z,44.30
2017-09-28T03:06:13.836Z,43.60
2017-09-28T03:08:41.677Z,42.87
2017-09-28T03:11:09.505Z,44.63
2017-09-28T03:13:37.346Z,42.40
2017-09-28T03:16:05.277Z,43.50
2017-09-28T03:18:33.150Z,43.70
2017-09-28T03:21:00.976Z,44.53
2017-09-28T03:23:28.810Z,43.57
2017-09-28T03:25:56.656Z,42.17
2017-09-28T03:28:24.500Z,44.33
2017-09-28T03:30:52.333Z,45.40
2017-09-28T03:33:20.149Z,46.63
2017-09-28T03:35:47.977Z,47.20
2017-09-28T03:38:15.796Z,45.13
2017-09-28T03:40:43.649Z,47.27
2017-09-28T03:43:11.513Z,50.53
2017-09-28T03:45:37.593Z,46.13
2017-09-28T03:48:03.675Z,46.57
2017-09-28T03:50:30.317Z,45.17
2017-09-28T03:52:57.109Z,47.33
2017-09-28T03:55:23.904Z,44.20
2017-09-28T03:57:49.990Z,48.20
2017-09-28T04:00:16.058Z,45.47
2017-09-28T04:02:42.122Z,46.23
2017-09-28T04:05:08.170Z,47.37
2017-09-28T04:07:34.216Z,49.60
2017-09-28T04:10:00.278Z,43.97
2017-09-28T04:12:26.345Z,42.97
2017-09-28T04:14:52.437Z,47.03
2017-09-28T04:17:18.489Z,46.43
2017-09-28T04:19:44.541Z,44.87
2017-09-28T04:22:10.614Z,46.37
2017-09-28T04:24:36.661Z,46.43
2017-09-28T04:27:02.722Z,46.00
2017-09-28T04:29:28.825Z,47.87
2017-09-28T04:31:54.894Z,46.23
2017-09-28T04:34:21.717Z,48.47
2017-09-28T04:36:47.767Z,47.40
2017-09-28T04:39:13.822Z,50.57
2017-09-28T04:41:39.868Z,50.67
2017-09-28T04:44:06.134Z,48.60
2017-09-28T04:46:32.202Z,45.70
2017-09-28T04:48:58.263Z,48.20
2017-09-28T04:51:24.369Z,46.23
2017-09-28T04:53:50.430Z,47.20
2017-09-28T04:56:16.549Z,48.60
2017-09-28T04:58:42.634Z,47.30
2017-09-28T05:01:09.469Z,49.90
2017-09-28T05:03:35.550Z,48.77
2017-09-28T05:06:01.653Z,49.10
2017-09-28T05:08:27.802Z,48.70
2017-09-28T05:10:54.610Z,51.63
2017-09-28T05:13:20.686Z,52.67
2017-09-28T05:15:46.729Z,48.93
2017-09-28T05:18:13.533Z,49.90
2017-09-28T05:20:39.591Z,51.37
2017-09-28T05:23:05.669Z,49.93
2017-09-28T05:25:32.454Z,52.67
2017-09-28T05:27:58.657Z,48.47
2017-09-28T05:30:24.720Z,46.97
2017-09-28T05:32:50.785Z,48.00
2017-09-28T05:35:16.855Z,46.70
2017-09-28T05:37:43.077Z,46.17
2017-09-28T05:40:09.211Z,46.70
2017-09-28T05:42:35.299Z,44.17
2017-09-28T05:45:01.443Z,44.23
2017-09-28T05:47:27.494Z,45.20
2017-09-28T05:49:54.321Z,44.20
2017-09-28T05:52:21.097Z,46.73
2017-09-28T05:54:47.178Z,44.27
2017-09-28T05:57:13.225Z,45.93
2017-09-28T05:59:39.271Z,45.87
2017-09-28T06:02:05.324Z,44.10
2017-09-28T06:04:31.418Z,43.63
2017-09-28T06:06:57.486Z,48.00
2017-09-28T06:09:24.309Z,44.00
2017-09-28T06:11:50.388Z,46.50
2017-09-28T06:14:17.182Z,45.17
2017-09-28T06:16:43.253Z,42.70
2017-09-28T06:19:10.249Z,44.97
2017-09-28T06:21:36.437Z,49.20
2017-09-28T06:24:02.501Z,43.80
2017-09-28T06:26:28.600Z,47.87
2017-09-28T06:28:55.436Z,46.00
2017-09-28T06:31:21.494Z,45.83
2017-09-28T06:33:47.580Z,45.70
2017-09-28T06:36:13.617Z,50.40
2017-09-28T06:38:40.443Z,46.93
2017-09-28T06:41:06.513Z,51.20
2017-09-28T06:43:33.439Z,48.70
2017-09-28T06:46:00.347Z,47.27
2017-09-28T06:48:26.480Z,47.30
2017-09-28T06:50:52.666Z,47.33
2017-09-28T06:53:18.842Z,48.10
2017-09-28T06:55:44.889Z,49.80
2017-09-28T06:58:11.009Z,47.80
2017-09-28T07:00:37.096Z,49.90
2017-09-28T07:03:03.200Z,47.60
2017-09-28T07:05:29.358Z,49.00
2017-09-28T07:07:55.454Z,50.23
2017-09-28T07:10:21.535Z,50.80
2017-09-28T07:12:47.581Z,49.03
2017-09-28T07:15:13.665Z,52.57
2017-09-28T07:17:39.737Z,48.80
2017-09-28T07:20:05.817Z,50.70
2017-09-28T07:22:32.618Z,50.73
2017-09-28T07:24:58.678Z,49.50
2017-09-28T07:27:25.481Z,51.97
2017-09-28T07:29:51.609Z,47.67
2017-09-28T07:32:17.690Z,49.67
2017-09-28T07:34:43.780Z,51.13
2017-09-28T07:37:09.876Z,48.07
2017-09-28T07:39:35.921Z,48.50
2017-09-28T07:42:02.074Z,49.67
2017-09-28T07:44:28.158Z,48.70
2017-09-28T07:46:54.993Z,51.73
2017-09-28T07:49:21.058Z,51.73
2017-09-28T07:51:47.140Z,48.00
2017-09-28T07:54:13.214Z,48.67
2017-09-28T07:56:40.048Z,45.13
2017-09-28T07:59:06.870Z,47.80
2017-09-28T08:01:33.678Z,50.60
2017-09-28T08:03:59.747Z,47.07
2017-09-28T08:06:25.841Z,46.37
2017-09-28T08:08:51.909Z,47.23
2017-09-28T08:11:17.962Z,47.30
2017-09-28T08:13:44.026Z,46.70
2017-09-28T08:16:10.091Z,45.97
2017-09-28T08:18:36.133Z,47.50
2017-09-28T08:21:02.212Z,45.50
2017-09-28T08:23:28.266Z,45.40
2017-09-28T08:25:54.318Z,46.80
2017-09-28T08:28:21.197Z,46.80
2017-09-28T08:30:47.265Z,47.90
2017-09-28T08:33:21.081Z,50.10
2017-09-28T08:35:47.157Z,47.67
2017-09-28T08:38:13.981Z,46.63
2017-09-28T08:40:40.786Z,49.80
2017-09-28T08:43:06.871Z,49.33
2017-09-28T08:45:32.926Z,51.50
2017-09-28T08:47:59.757Z,49.90
2017-09-28T08:50:26.592Z,51.27
2017-09-28T08:52:53.405Z,51.20
2017-09-28T08:55:19.458Z,54.20
2017-09-28T08:57:45.501Z,54.47
2017-09-28T09:00:11.569Z,51.97
2017-09-28T09:02:37.625Z,52.80
2017-09-28T09:05:04.458Z,53.53
2017-09-28T09:07:30.513Z,49.87
2017-09-28T09:09:56.594Z,52.17
2017-09-28T09:12:22.638Z,51.93
2017-09-28T09:14:48.706Z,51.50
2017-09-28T09:17:14.747Z,50.30
2017-09-28T09:19:40.789Z,51.33
2017-09-28T09:22:06.841Z,53.43
2017-09-28T09:24:33.632Z,49.70
2017-09-28T09:26:59.697Z,49.97
2017-09-28T09:29:25.753Z,51.77
2017-09-28T09:31:51.801Z,50.80
2017-09-28T09:34:17.881Z,48.70
2017-09-28T09:36:43.964Z,49.63
2017-09-28T09:39:10.011Z,51.17
2017-09-28T09:41:36.812Z,48.47
2017-09-28T09:44:02.866Z,48.27
2017-09-28T09:46:29.661Z,48.90
2017-09-28T09:48:56.458Z,51.73
2017-09-28T09:51:22.522Z,47.90
2017-09-28T09:53:49.295Z,47.90
2017-09-28T09:56:15.362Z,48.43
2017-09-28T09:58:42.163Z,49.50
2017-09-28T10:01:08.230Z,49.27
2017-09-28T10:03:34.273Z,51.37
2017-09-28T10:06:00.345Z,43.87
2017-09-28T10:08:27.745Z,46.00
2017-09-28T10:10:59.330Z,45.80
2017-09-28T10:13:33.505Z,47.70
2017-09-28T10:16:09.857Z,44.30
2017-09-28T10:18:36.192Z,47.27
2017-09-28T10:21:02.257Z,46.33
2017-09-28T10:23:29.068Z,47.50
2017-09-28T10:25:56.004Z,48.80
2017-09-28T10:28:22.775Z,48.30
2017-09-28T10:30:48.814Z,50.30
2017-09-28T10:33:14.857Z,48.30
2017-09-28T10:35:41.650Z,51.20
2017-09-28T10:38:07.718Z,50.27
2017-09-28T10:40:33.759Z,56.07
2017-09-28T10:42:59.842Z,52.93
2017-09-28T10:45:25.966Z,53.30
2017-09-28T10:47:52.031Z,50.73
2017-09-28T10:50:18.081Z,51.80
2017-09-28T10:52:44.140Z,50.80
2017-09-28T10:55:10.959Z,53.67
2017-09-28T10:57:37.019Z,50.80
2017-09-28T11:00:03.102Z,53.77
2017-09-28T11:02:29.886Z,52.37
2017-09-28T11:04:56.312Z,56.37
2017-09-28T11:07:22.376Z,50.93
2017-09-28T11:09:48.429Z,52.77
2017-09-28T11:12:14.525Z,55.87
2017-09-28T11:14:40.598Z,55.57
2017-09-28T11:17:06.653Z,51.77
2017-09-28T11:19:32.703Z,52.87
2017-09-28T11:21:58.769Z,49.47
2017-09-28T11:24:24.809Z,53.80
2017-09-28T11:26:51.606Z,52.10
2017-09-28T11:29:18.394Z,54.00
2017-09-28T11:31:44.446Z,54.30
2017-09-28T11:34:11.298Z,51.70
2017-09-28T11:36:37.385Z,54.33
2017-09-28T11:39:03.469Z,53.80
2017-09-28T11:41:29.586Z,52.10
2017-09-28T11:43:55.626Z,53.40
2017-09-28T11:46:21.673Z,52.53
2017-09-28T11:48:47.735Z,51.90
2017-09-28T11:51:13.822Z,52.57
2017-09-28T11:53:40.652Z,52.30
2017-09-28T11:56:06.696Z,51.33
2017-09-28T11:58:32.743Z,55.37
2017-09-28T12:00:58.789Z,52.13
2017-09-28T12:03:24.859Z,52.27
2017-09-28T12:05:50.925Z,52.10
2017-09-28T12:08:16.991Z,52.53
2017-09-28T12:10:43.064Z,50.80
2017-09-28T12:13:09.843Z,49.70
2017-09-28T12:15:35.902Z,51.80
2017-09-28T12:18:02.687Z,53.30
2017-09-28T12:20:28.757Z,53.43
2017-09-28T12:22:54.834Z,51.33
2017-09-28T12:25:21.698Z,53.60
2017-09-28T12:27:47.769Z,56.30
2017-09-28T12:30:14.585Z,54.03
2017-09-28T12:32:41.483Z,51.57
2017-09-28T12:35:07.595Z,52.57
2017-09-28T12:37:33.677Z,53.70
2017-09-28T12:39:59.706Z,52.03
2017-09-28T12:42:25.902Z,54.07
2017-09-28T12:44:51.944Z,52.20
2017-09-28T12:47:18.006Z,52.00
2017-09-28T12:49:44.049Z,52.27
2017-09-28T12:52:10.095Z,55.17
2017-09-28T12:54:36.120Z,53.70
2017-09-28T12:57:02.905Z,52.33
2017-09-28T12:59:28.981Z,52.47
2017-09-28T13:01:55.042Z,55.47
2017-09-28T13:04:21.166Z,53.83
2017-09-28T13:06:47.957Z,54.40
2017-09-28T13:09:13.998Z,52.60
2017-09-28T13:11:40.799Z,56.00
2017-09-28T13:14:07.457Z,54.77
2017-09-28T13:16:34.241Z,56.00
2017-09-28T13:19:00.321Z,57.50
2017-09-28T13:21:26.374Z,56.93
2017-09-28T13:23:52.404Z,56.87
2017-09-28T13:26:19.240Z,57.63
2017-09-28T13:28:45.321Z,58.33
2017-09-28T13:31:11.371Z,61.37
2017-09-28T13:33:37.456Z,62.57
2017-09-28T13:36:04.255Z,56.23
2017-09-28T13:38:30.317Z,59.47
2017-09-28T13:40:57.117Z,58.70
2017-09-28T13:43:23.163Z,58.73
2017-09-28T13:45:49.249Z,60.23
2017-09-28T13:48:16.073Z,61.37
2017-09-28T13:50:42.885Z,65.87
2017-09-28T13:53:09.712Z,63.83
2017-09-28T13:55:36.561Z,64.80
2017-09-28T13:58:02.613Z,63.00
2017-09-28T14:00:28.658Z,70.83
2017-09-28T14:02:55.473Z,63.33
2017-09-28T14:05:21.549Z,63.87
2017-09-28T14:07:47.606Z,65.90
2017-09-28T14:10:13.646Z,65.30
2017-09-28T14:12:39.682Z,62.97
2017-09-28T14:15:06.466Z,61.47
2017-09-28T14:17:32.514Z,61.03
2017-09-28T14:19:58.553Z,63.03
2017-09-28T14:22:24.619Z,66.63
2017-09-28T14:24:50.681Z,62.50
2017-09-28T14:27:16.726Z,63.90
2017-09-28T14:29:42.747Z,64.20
2017-09-28T14:32:08.805Z,65.37
2017-09-28T14:34:34.854Z,63.97
2017-09-28T14:37:00.901Z,64.20
2017-09-28T14:39:27.060Z,64.73
2017-09-28T14:41:53.049Z,62.50
2017-09-28T14:44:19.891Z,61.40
2017-09-28T14:46:46.689Z,66.60
2017-09-28T14:49:13.529Z,65.80
2017-09-28T14:51:39.606Z,68.27
2017-09-28T14:54:06.376Z,65.60
2017-09-28T14:56:33.170Z,63.80
2017-09-28T14:58:59.216Z,60.50
2017-09-28T15:01:25.281Z,64.80
2017-09-28T15:03:51.322Z,64.60
2017-09-28T15:06:18.179Z,65.80
2017-09-28T15:08:44.322Z,65.80
2017-09-28T15:11:10.418Z,62.80
2017-09-28T15:13:36.486Z,62.30
2017-09-28T15:16:02.530Z,64.53
2017-09-28T15:18:28.590Z,63.30
2017-09-28T15:20:54.629Z,65.50
2017-09-28T15:23:20.681Z,64.07
2017-09-28T15:25:46.725Z,65.10
2017-09-28T15:28:13.511Z,64.17
2017-09-28T15:30:39.557Z,62.60
2017-09-28T15:33:06.357Z,67.30
2017-09-28T15:35:32.389Z,63.80
2017-09-28T15:37:58.450Z,64.37
2017-09-28T15:40:24.537Z,63.90
2017-09-28T15:42:50.603Z,65.27
2017-09-28T15:45:16.685Z,65.47
2017-09-28T15:47:42.770Z,65.40
2017-09-28T15:50:08.835Z,63.20
2017-09-28T15:52:35.734Z,64.83
2017-09-28T15:55:01.814Z,64.23
2017-09-28T15:57:27.867Z,63.43
2017-09-28T15:59:53.949Z,64.77
2017-09-28T16:02:19.985Z,66.73
2017-09-28T16:04:46.781Z,61.37
2017-09-28T16:07:12.843Z,63.00
2017-09-28T16:09:39.633Z,64.47
2017-09-28T16:12:05.654Z,67.17
2017-09-28T16:14:31.705Z,65.10
2017-09-28T16:16:57.749Z,63.33
2017-09-28T16:19:23.797Z,65.63
2017-09-28T16:21:49.849Z,63.57
2017-09-28T16:24:15.902Z,67.67
2017-09-28T16:26:41.954Z,65.07
2017-09-28T16:29:08.241Z,65.43
2017-09-28T16:31:35.069Z,68.40
2017-09-28T16:34:01.930Z,63.50
2017-09-28T16:36:27.990Z,65.30
2017-09-28T16:38:54.056Z,66.80
2017-09-28T16:41:20.139Z,70.00
2017-09-28T16:43:46.206Z,67.10
2017-09-28T16:46:12.262Z,69.90
2017-09-28T16:48:38.350Z,71.43
2017-09-28T16:51:04.386Z,67.80
2017-09-28T16:53:31.185Z,68.40
2017-09-28T16:55:57.237Z,70.73
2017-09-28T16:58:23.293Z,70.20
2017-09-28T17:00:49.365Z,69.00
2017-09-28T17:03:15.421Z,68.53
2017-09-28T17:05:41.495Z,67.20
2017-09-28T17:08:07.557Z,64.73
2017-09-28T17:10:34.361Z,67.93
2017-09-28T17:13:00.425Z,66.30
2017-09-28T17:15:26.494Z,73.93
2017-09-28T17:17:53.314Z,72.97
2017-09-28T17:20:19.434Z,71.83
2017-09-28T17:22:45.531Z,71.70
2017-09-28T17:25:12.374Z,74.67
2017-09-28T17:27:38.413Z,74.10
2017-09-28T17:30:04.505Z,72.00
2017-09-28T17:32:30.561Z,73.47
2017-09-28T17:34:56.589Z,74.53
2017-09-28T17:37:22.649Z,70.90
2017-09-28T17:39:48.839Z,77.50
2017-09-28T17:42:15.514Z,73.80
2017-09-28T17:44:41.562Z,73.50
2017-09-28T17:47:08.365Z,72.83
2017-09-28T17:49:34.406Z,78.80
2017-09-28T17:52:01.338Z,74.23
2017-09-28T17:54:27.393Z,78.43
2017-09-28T17:56:53.505Z,76.67
2017-09-28T17:59:19.562Z,81.33
2017-09-28T18:01:45.637Z,79.17
2017-09-28T18:04:11.712Z,78.00
2017-09-28T18:06:37.802Z,76.70
2017-09-28T18:09:03.875Z,75.97
2017-09-28T18:11:29.965Z,77.37
2017-09-28T18:13:56.853Z,79.07
2017-09-28T18:16:22.926Z,74.67
2017-09-28T18:18:49.048Z,75.20
2017-09-28T18:21:15.863Z,79.53
2017-09-28T18:23:42.680Z,78.53
2017-09-28T18:26:08.769Z,83.87
2017-09-28T18:28:34.830Z,81.20
2017-09-28T18:31:01.633Z,84.87
2017-09-28T18:33:27.676Z,82.60
2017-09-28T18:35:53.843Z,82.27
2017-09-28T18:38:19.884Z,80.27
2017-09-28T18:40:46.670Z,78.60
2017-09-28T18:43:12.759Z,78.90
2017-09-28T18:45:38.821Z,79.87
2017-09-28T18:48:05.613Z,82.20
2017-09-28T18:50:31.683Z,80.90
2017-09-28T18:52:57.737Z,77.80
2017-09-28T18:55:23.813Z,75.83
2017-09-28T18:57:49.857Z,79.13
2017-09-28T19:00:16.034Z,81.37
2017-09-28T19:02:42.084Z,79.13
2017-09-28T19:05:08.261Z,81.97
2017-09-28T19:07:34.762Z,78.10
2017-09-28T19:10:00.855Z,74.87
2017-09-28T19:12:27.653Z,76.97
2017-09-28T19:14:53.715Z,86.50
2017-09-28T19:17:19.781Z,82.80
2017-09-28T19:19:45.813Z,81.70
2017-09-28T19:22:12.590Z,85.10
2017-09-28T19:24:38.678Z,82.77
2017-09-28T19:27:05.497Z,83.17
2017-09-28T19:29:31.583Z,79.10
2017-09-28T19:31:57.633Z,82.03
2017-09-28T19:34:23.692Z,79.83
2017-09-28T19:36:50.509Z,80.47
2017-09-28T19:39:16.537Z,82.77
2017-09-28T19:41:42.596Z,78.63
2017-09-28T19:44:08.662Z,84.07
2017-09-28T19:46:35.465Z,83.97
2017-09-28T19:49:02.285Z,85.10
2017-09-28T19:51:28.350Z,82.93
2017-09-28T19:53:54.414Z,86.10
2017-09-28T19:56:20.442Z,84.40
2017-09-28T19:58:47.229Z,84.43
2017-09-28T20:01:13.279Z,87.27
2017-09-28T20:03:39.371Z,87.03
2017-09-28T20:06:05.416Z,89.07
2017-09-28T20:08:31.479Z,88.97
2017-09-28T20:10:57.525Z,89.33
2017-09-28T20:13:23.664Z,89.30
2017-09-28T20:15:49.711Z,90.30
2017-09-28T20:18:15.762Z,93.70
2017-09-28T20:20:41.818Z,91.90
2017-09-28T20:23:09.393Z,94.67
2017-09-28T20:25:35.702Z,94.43
2017-09-28T20:28:01.754Z,89.33
2017-09-28T20:30:27.819Z,91.03
2017-09-28T20:32:56.109Z,87.33
2017-09-28T20:35:22.419Z,93.40
2017-09-28T20:37:48.673Z,91.43
2017-09-28T20:40:14.747Z,93.47
2017-09-28T20:42:40.832Z,88.77
2017-09-28T20:45:07.074Z,92.70
2017-09-28T20:47:33.140Z,98.67
2017-09-28T20:50:04.564Z,93.70
2017-09-28T20:52:31.404Z,92.83
2017-09-28T20:54:58.192Z,95.40
2017-09-28T20:57:24.225Z,91.13
2017-09-28T20:59:53.500Z,92.80
2017-09-28T21:02:19.533Z,91.70
2017-09-28T21:04:45.668Z,98.50
2017-09-28T21:07:11.697Z,93.60
2017-09-28T21:09:37.725Z,93.13
2017-09-28T21:12:03.793Z,92.60
2017-09-28T21:14:29.881Z,94.60
2017-09-28T21:16:56.696Z,94.37
2017-09-28T21:19:23.505Z,89.07
2017-09-28T21:21:49.531Z,96.13
2017-09-28T21:24:15.577Z,95.93
2017-09-28T21:26:41.606Z,91.40
2017-09-28T21:29:07.737Z,87.13
2017-09-28T21:31:33.782Z,94.00
2017-09-28T21:33:59.785Z,89.80
2017-09-28T21:36:25.853Z,95.00
2017-09-28T21:38:51.900Z,93.30
2017-09-28T21:41:17.949Z,92.17
2017-09-28T21:43:44.017Z,91.93
2017-09-28T21:46:10.085Z,92.43
2017-09-28T21:48:36.125Z,96.33
2017-09-28T21:51:02.221Z,91.87
2017-09-28T21:53:28.272Z,91.03
2017-09-28T21:55:55.360Z,90.80
2017-09-28T21:58:21.397Z,92.97
2017-09-28T22:00:48.429Z,89.40
2017-09-28T22:03:14.450Z,90.00
2017-09-28T22:05:41.236Z,91.23
2017-09-28T22:08:07.274Z,86.23
2017-09-28T22:10:34.058Z,85.27
2017-09-28T22:13:00.352Z,86.40
2017-09-28T22:15:26.459Z,80.97
2017-09-28T22:17:52.509Z,82.90
2017-09-28T22:20:18.565Z,83.10
2017-09-28T22:22:44.621Z,79.07
2017-09-28T22:25:10.645Z,80.53
2017-09-28T22:27:36.670Z,78.07
2017-09-28T22:30:02.697Z,80.97
2017-09-28T22:32:28.740Z,78.50
2017-09-28T22:34:54.761Z,76.37
2017-09-28T22:37:20.790Z,79.50
2017-09-28T22:39:46.809Z,79.03
2017-09-28T22:42:12.814Z,78.70
2017-09-28T22:44:39.627Z,78.13
2017-09-28T22:47:05.645Z,75.73
2017-09-28T22:49:31.709Z,79.50
2017-09-28T22:51:57.737Z,75.83
2017-09-28T22:54:23.798Z,73.97
2017-09-28T22:56:49.829Z,76.97
2017-09-28T22:59:15.946Z,73.50
2017-09-28T23:01:42.007Z,71.57
2017-09-28T23:04:08.817Z,76.93
2017-09-28T23:06:34.881Z,73.53
2017-09-28T23:09:00.912Z,79.37
2017-09-28T23:11:27.766Z,78.00
2017-09-28T23:13:53.817Z,74.70
2017-09-28T23:16:19.869Z,74.63
2017-09-28T23:18:45.907Z,72.97
2017-09-28T23:21:11.930Z,70.67
2017-09-28T23:23:38.717Z,68.13
2017-09-28T23:26:04.791Z,68.77
2017-09-28T23:28:30.833Z,70.77
2017-09-28T23:30:56.857Z,72.53
2017-09-28T23:33:22.914Z,70.43
2017-09-28T23:35:48.985Z,67.67
2017-09-28T23:38:15.817Z,69.67
2017-09-28T23:40:41.850Z,64.43
2017-09-28T23:43:08.205Z,65.20
2017-09-28T23:45:34.262Z,68.67
2017-09-28T23:48:00.314Z,63.87
2017-09-28T23:50:26.361Z,67.30
2017-09-28T23:52:52.406Z,62.60
2017-09-28T23:55:18.447Z,61.73
2017-09-28T23:57:44.525Z,57.60
